createdAt,value
2023-04-04T00:00:32.039Z,22.26
2023-04-04T00:01:32.054Z,22.26
2023-04-04T00:02:32.095Z,22.26
2023-04-04T00:03:32.210Z,22.26
2023-04-04T00:04:32.081Z,22.26
2023-04-04T00:05:32.083Z,22.26
2023-04-04T00:06:32.108Z,22.26
2023-04-04T00:07:32.107Z,22.26
2023-04-04T00:08:32.145Z,22.25
2023-04-04T00:09:32.121Z,22.25
2023-04-04T00:10:32.183Z,22.26
2023-04-04T00:11:32.149Z,22.26
2023-04-04T00:12:32.153Z,22.25
2023-04-04T00:13:32.164Z,22.25
2023-04-04T00:14:32.166Z,22.25
2023-04-04T00:15:32.199Z,22.25
2023-04-04T00:16:32.251Z,22.25
2023-04-04T00:17:32.516Z,22.25
2023-04-04T00:18:32.263Z,22.25
2023-04-04T00:19:32.248Z,22.25
2023-04-04T00:20:32.333Z,22.25
2023-04-04T00:21:32.304Z,22.25
2023-04-04T00:22:32.281Z,22.25
2023-04-04T00:23:32.285Z,22.25
2023-04-04T00:24:32.363Z,22.25
2023-04-04T00:25:32.344Z,22.25
2023-04-04T00:26:33.894Z,22.25
2023-04-04T00:27:32.427Z,22.24
2023-04-04T00:28:32.361Z,22.23
2023-04-04T00:29:32.354Z,22.25
2023-04-04T00:30:32.366Z,22.24
2023-04-04T00:31:32.466Z,22.23
2023-04-04T00:32:32.410Z,22.23
2023-04-04T00:33:32.547Z,22.24
2023-04-04T00:34:32.404Z,22.24
2023-04-04T00:35:32.433Z,22.23
2023-04-04T00:36:32.455Z,22.24
2023-04-04T00:37:32.469Z,22.24
2023-04-04T00:38:32.481Z,22.23
2023-04-04T00:39:32.511Z,22.23
2023-04-04T00:40:32.505Z,22.23
2023-04-04T00:41:32.526Z,22.23
2023-04-04T00:42:32.538Z,22.22
2023-04-04T00:43:32.547Z,22.22
2023-04-04T00:44:32.546Z,22.22
2023-04-04T00:45:32.628Z,22.22
2023-04-04T00:46:32.611Z,22.23
2023-04-04T00:47:32.658Z,22.23
2023-04-04T00:48:32.678Z,22.22
2023-04-04T00:49:32.736Z,22.23
2023-04-04T00:50:32.696Z,22.23
2023-04-04T00:51:32.693Z,22.23
2023-04-04T00:52:32.720Z,22.23
2023-04-04T00:53:32.777Z,22.22
2023-04-04T00:54:32.741Z,22.22
2023-04-04T00:55:32.769Z,22.23
2023-04-04T00:56:32.766Z,22.23
2023-04-04T00:57:32.797Z,22.22
2023-04-04T00:58:32.822Z,22.22
2023-04-04T00:59:33.037Z,22.22
2023-04-04T01:00:32.873Z,22.22
2023-04-04T01:01:32.895Z,22.22
2023-04-04T01:02:32.936Z,22.22
2023-04-04T01:03:32.887Z,22.22
2023-04-04T01:04:32.993Z,22.22
2023-04-04T01:05:33.026Z,22.22
2023-04-04T01:06:32.953Z,22.22
2023-04-04T01:07:33.570Z,22.22
2023-04-04T01:08:32.985Z,22.22
2023-04-04T01:09:33.030Z,22.22
2023-04-04T01:10:33.013Z,22.22
2023-04-04T01:11:33.025Z,22.21
2023-04-04T01:12:33.042Z,22.21
2023-04-04T01:13:33.057Z,22.22
2023-04-04T01:14:33.052Z,22.22
2023-04-04T01:15:33.100Z,22.21
2023-04-04T01:16:33.186Z,22.21
2023-04-04T01:17:33.144Z,22.21
2023-04-04T01:18:33.131Z,22.20
2023-04-04T01:19:33.156Z,22.20
2023-04-04T01:20:33.181Z,22.21
2023-04-04T01:21:33.178Z,22.21
2023-04-04T01:22:33.194Z,22.21
2023-04-04T01:23:33.245Z,22.20
2023-04-04T01:24:33.228Z,22.22
2023-04-04T01:25:33.291Z,22.21
2023-04-04T01:26:33.264Z,22.21
2023-04-04T01:27:33.295Z,22.22
2023-04-04T01:28:33.278Z,22.21
2023-04-04T01:29:33.315Z,22.21
2023-04-04T01:30:33.350Z,22.20
2023-04-04T01:31:33.340Z,22.22
2023-04-04T01:32:33.371Z,22.21
2023-04-04T01:33:33.390Z,22.19
2023-04-04T01:34:33.376Z,22.20
2023-04-04T01:35:33.401Z,22.20
2023-04-04T01:36:33.428Z,22.20
2023-04-04T01:37:33.435Z,22.19
2023-04-04T01:38:33.436Z,22.19
2023-04-04T01:39:33.480Z,22.19
2023-04-04T01:40:33.478Z,22.19
2023-04-04T01:41:33.508Z,22.18
2023-04-04T01:42:33.547Z,22.18
2023-04-04T01:43:33.548Z,22.18
2023-04-04T01:44:33.561Z,22.18
2023-04-04T01:45:33.584Z,22.17
2023-04-04T01:46:33.707Z,22.17
2023-04-04T01:47:33.643Z,22.17
2023-04-04T01:48:33.624Z,22.17
2023-04-04T01:49:33.650Z,22.17
2023-04-04T01:50:33.668Z,22.17
2023-04-04T01:51:33.698Z,22.17
2023-04-04T01:52:33.691Z,22.17
2023-04-04T01:53:33.734Z,22.17
2023-04-04T01:54:33.738Z,22.17
2023-04-04T01:55:33.764Z,22.18
2023-04-04T01:56:33.775Z,22.17
2023-04-04T01:57:33.789Z,22.17
2023-04-04T01:58:33.790Z,22.17
2023-04-04T01:59:33.889Z,22.18
2023-04-04T02:00:33.843Z,22.17
2023-04-04T02:01:33.858Z,22.17
2023-04-04T02:02:33.853Z,22.17
2023-04-04T02:03:33.905Z,22.17
2023-04-04T02:04:34.066Z,22.16
2023-04-04T02:05:33.922Z,22.16
2023-04-04T02:06:33.971Z,22.16
2023-04-04T02:07:33.955Z,22.16
2023-04-04T02:08:34.000Z,22.16
2023-04-04T02:09:33.995Z,22.16
2023-04-04T02:10:34.039Z,22.15
2023-04-04T02:11:34.059Z,22.16
2023-04-04T02:12:34.043Z,22.16
2023-04-04T02:13:34.096Z,22.15
2023-04-04T02:14:34.106Z,22.15
2023-04-04T02:15:34.151Z,22.15
2023-04-04T02:16:34.183Z,22.15
2023-04-04T02:17:34.221Z,22.14
2023-04-04T02:18:34.206Z,22.14
2023-04-04T02:19:34.195Z,22.14
2023-04-04T02:20:34.274Z,22.13
2023-04-04T02:21:34.271Z,22.14
2023-04-04T02:22:34.299Z,22.14
2023-04-04T02:23:34.332Z,22.13
2023-04-04T02:24:34.347Z,22.14
2023-04-04T02:25:34.344Z,22.13
2023-04-04T02:26:34.405Z,22.13
2023-04-04T02:27:34.367Z,22.13
2023-04-04T02:28:34.362Z,22.12
2023-04-04T02:29:34.398Z,22.12
2023-04-04T02:30:34.437Z,22.13
2023-04-04T02:31:34.543Z,22.12
2023-04-04T02:32:34.497Z,22.12
2023-04-04T02:33:34.535Z,22.12
2023-04-04T02:34:34.516Z,22.12
2023-04-04T02:35:34.591Z,22.12
2023-04-04T02:36:34.617Z,22.12
2023-04-04T02:37:34.578Z,22.12
2023-04-04T02:38:34.598Z,22.12
2023-04-04T02:39:34.655Z,22.11
2023-04-04T02:40:34.651Z,22.12
2023-04-04T02:41:34.660Z,22.11
2023-04-04T02:42:34.665Z,22.11
2023-04-04T02:43:34.700Z,22.10
2023-04-04T02:44:34.731Z,22.11
2023-04-04T02:45:34.789Z,22.11
2023-04-04T02:46:34.800Z,22.11
2023-04-04T02:47:34.859Z,22.11
2023-04-04T02:48:34.840Z,22.11
2023-04-04T02:49:34.842Z,22.10
2023-04-04T02:50:34.932Z,22.10
2023-04-04T02:51:34.938Z,22.10
2023-04-04T02:52:34.958Z,22.10
2023-04-04T02:53:34.991Z,22.10
2023-04-04T02:54:34.989Z,22.10
2023-04-04T02:55:35.027Z,22.10
2023-04-04T02:56:35.075Z,22.10
2023-04-04T02:57:35.055Z,22.10
2023-04-04T02:58:35.133Z,22.11
2023-04-04T02:59:35.114Z,22.10
2023-04-04T03:00:35.149Z,22.09
2023-04-04T03:01:35.256Z,22.10
2023-04-04T03:02:35.363Z,22.09
2023-04-04T03:03:35.294Z,22.10
2023-04-04T03:04:35.223Z,22.09
2023-04-04T03:05:35.296Z,22.09
2023-04-04T03:06:35.295Z,22.09
2023-04-04T03:07:35.300Z,22.09
2023-04-04T03:08:35.362Z,22.09
2023-04-04T03:09:35.356Z,22.09
2023-04-04T03:10:35.396Z,22.09
2023-04-04T03:11:35.426Z,22.08
2023-04-04T03:12:35.438Z,22.08
2023-04-04T03:13:35.501Z,22.09
2023-04-04T03:14:35.509Z,22.08
2023-04-04T03:15:35.528Z,22.08
2023-04-04T03:16:35.655Z,22.07
2023-04-04T03:17:35.650Z,22.08
2023-04-04T03:18:35.636Z,22.07
2023-04-04T03:19:35.686Z,22.08
2023-04-04T03:20:35.689Z,22.07
2023-04-04T03:21:35.723Z,22.07
2023-04-04T03:22:35.753Z,22.08
2023-04-04T03:23:35.769Z,22.07
2023-04-04T03:24:35.832Z,22.07
2023-04-04T03:25:35.831Z,22.06
2023-04-04T03:26:35.882Z,22.07
2023-04-04T03:27:35.886Z,22.07
2023-04-04T03:28:35.889Z,22.06
2023-04-04T03:29:35.943Z,22.06
2023-04-04T03:30:35.965Z,22.06
2023-04-04T03:31:35.985Z,22.06
2023-04-04T03:32:36.042Z,22.06
2023-04-04T03:33:36.068Z,22.06
2023-04-04T03:34:36.066Z,22.07
2023-04-04T03:35:36.155Z,22.07
2023-04-04T03:36:36.155Z,22.07
2023-04-04T03:37:36.165Z,22.07
2023-04-04T03:38:36.217Z,22.06
2023-04-04T03:39:36.206Z,22.06
2023-04-04T03:40:36.233Z,22.05
2023-04-04T03:41:36.252Z,22.05
2023-04-04T03:42:36.292Z,22.05
2023-04-04T03:43:36.326Z,22.05
2023-04-04T03:44:36.344Z,22.05
2023-04-04T03:45:36.438Z,22.05
2023-04-04T03:46:36.492Z,22.05
2023-04-04T03:47:36.471Z,22.05
2023-04-04T03:48:36.481Z,22.05
2023-04-04T03:49:36.507Z,22.05
2023-04-04T03:50:36.509Z,22.05
2023-04-04T03:51:36.576Z,22.05
2023-04-04T03:52:36.606Z,22.03
2023-04-04T03:53:36.636Z,22.04
2023-04-04T03:54:36.643Z,22.04
2023-04-04T03:55:36.680Z,22.03
2023-04-04T03:56:36.722Z,22.03
2023-04-04T03:57:36.744Z,22.03
2023-04-04T03:58:36.756Z,22.04
2023-04-04T03:59:36.765Z,22.03
2023-04-04T04:00:36.814Z,22.03
2023-04-04T04:01:36.828Z,22.03
2023-04-04T04:02:36.932Z,22.02
2023-04-04T04:03:36.901Z,22.03
2023-04-04T04:04:36.956Z,22.03
2023-04-04T04:05:36.996Z,22.02
2023-04-04T04:06:36.986Z,22.02
2023-04-04T04:07:37.035Z,22.02
2023-04-04T04:08:37.053Z,22.02
2023-04-04T04:09:37.074Z,22.02
2023-04-04T04:10:37.118Z,22.02
2023-04-04T04:11:37.167Z,22.02
2023-04-04T04:12:37.218Z,22.02
2023-04-04T04:13:37.242Z,22.02
2023-04-04T04:14:37.249Z,22.02
2023-04-04T04:15:37.310Z,22.02
2023-04-04T04:16:37.339Z,22.02
2023-04-04T04:17:37.347Z,22.02
2023-04-04T04:18:37.377Z,22.03
2023-04-04T04:19:37.389Z,22.02
2023-04-04T04:20:37.421Z,22.02
2023-04-04T04:21:37.465Z,22.02
2023-04-04T04:22:37.535Z,22.02
2023-04-04T04:23:37.514Z,22.02
2023-04-04T04:24:37.551Z,22.01
2023-04-04T04:25:37.561Z,22.01
2023-04-04T04:26:37.654Z,22.01
2023-04-04T04:27:37.652Z,22.02
2023-04-04T04:28:37.734Z,22.00
2023-04-04T04:29:37.736Z,22.00
2023-04-04T04:30:37.949Z,22.01
2023-04-04T04:31:37.835Z,22.00
2023-04-04T04:32:37.854Z,22.00
2023-04-04T04:33:37.853Z,22.00
2023-04-04T04:34:37.902Z,22.00
2023-04-04T04:35:37.976Z,22.00
2023-04-04T04:36:37.982Z,22.00
2023-04-04T04:37:37.975Z,22.01
2023-04-04T04:38:38.039Z,22.00
2023-04-04T04:39:38.043Z,22.00
2023-04-04T04:40:38.234Z,21.99
2023-04-04T04:41:38.120Z,21.99
2023-04-04T04:42:38.146Z,22.00
2023-04-04T04:43:38.181Z,21.99
2023-04-04T04:44:38.226Z,21.99
2023-04-04T04:45:38.362Z,21.99
2023-04-04T04:46:38.283Z,22.00
2023-04-04T04:47:38.332Z,22.00
2023-04-04T04:48:38.461Z,21.99
2023-04-04T04:49:38.390Z,22.00
2023-04-04T04:50:38.547Z,21.99
2023-04-04T04:51:38.434Z,21.99
2023-04-04T04:52:38.458Z,21.99
2023-04-04T04:53:38.478Z,22.00
2023-04-04T04:54:38.509Z,21.99
2023-04-04T04:55:38.523Z,21.99
2023-04-04T04:56:38.565Z,21.98
2023-04-04T04:57:38.613Z,21.98
2023-04-04T04:58:38.651Z,21.98
2023-04-04T04:59:38.689Z,21.98
2023-04-04T05:00:39.025Z,21.98
2023-04-04T05:01:38.834Z,21.99
2023-04-04T05:02:38.891Z,21.98
2023-04-04T05:03:38.802Z,21.99
2023-04-04T05:04:38.847Z,21.98
2023-04-04T05:05:38.872Z,21.98
2023-04-04T05:06:38.885Z,21.98
2023-04-04T05:07:38.942Z,21.98
2023-04-04T05:08:38.992Z,21.98
2023-04-04T05:09:39.022Z,21.98
2023-04-04T05:10:39.241Z,21.98
2023-04-04T05:11:39.061Z,21.98
2023-04-04T05:12:39.108Z,21.98
2023-04-04T05:13:39.153Z,21.98
2023-04-04T05:14:39.196Z,21.98
2023-04-04T05:15:39.213Z,21.99
2023-04-04T05:16:39.285Z,21.98
2023-04-04T05:17:39.303Z,21.99
2023-04-04T05:18:39.351Z,21.99
2023-04-04T05:19:39.409Z,21.99
2023-04-04T05:20:39.561Z,21.98
2023-04-04T05:21:39.455Z,21.98
2023-04-04T05:22:39.479Z,21.98
2023-04-04T05:23:39.493Z,21.99
2023-04-04T05:24:39.571Z,21.98
2023-04-04T05:25:39.647Z,21.98
2023-04-04T05:26:39.644Z,21.98
2023-04-04T05:27:39.698Z,21.99
2023-04-04T05:28:39.701Z,21.99
2023-04-04T05:29:39.762Z,21.98
2023-04-04T05:30:39.896Z,21.99
2023-04-04T05:31:39.856Z,21.98
2023-04-04T05:32:39.849Z,21.99
2023-04-04T05:33:39.896Z,21.99
2023-04-04T05:34:39.924Z,21.98
2023-04-04T05:35:39.993Z,21.99
2023-04-04T05:36:40.053Z,21.99
2023-04-04T05:37:40.028Z,21.99
2023-04-04T05:38:40.079Z,21.99
2023-04-04T05:39:40.102Z,21.99
2023-04-04T05:40:40.318Z,21.99
2023-04-04T05:41:40.165Z,21.99
2023-04-04T05:42:40.210Z,21.99
2023-04-04T05:43:40.222Z,21.99
2023-04-04T05:44:40.284Z,21.99
2023-04-04T05:45:41.440Z,21.99
2023-04-04T05:46:40.351Z,22.00
2023-04-04T05:47:40.387Z,22.00
2023-04-04T05:48:40.388Z,21.99
2023-04-04T05:49:40.411Z,22.00
2023-04-04T05:50:40.646Z,22.00
2023-04-04T05:51:40.475Z,21.99
2023-04-04T05:52:40.491Z,22.00
2023-04-04T05:53:40.543Z,22.00
2023-04-04T05:54:40.587Z,22.01
2023-04-04T05:55:40.582Z,22.00
2023-04-04T05:56:40.627Z,22.01
2023-04-04T05:57:40.639Z,22.01
2023-04-04T05:58:40.681Z,22.01
2023-04-04T05:59:40.726Z,22.01
2023-04-04T06:00:41.001Z,22.01
2023-04-04T06:01:40.767Z,22.01
2023-04-04T06:02:40.832Z,22.02
2023-04-04T06:03:40.850Z,22.02
2023-04-04T06:04:40.853Z,22.01
2023-04-04T06:05:40.925Z,22.02
2023-04-04T06:06:40.935Z,22.02
2023-04-04T06:07:40.944Z,22.01
2023-04-04T06:08:53.089Z,22.02
2023-04-04T06:09:41.924Z,22.01
2023-04-04T06:10:41.119Z,22.02
2023-04-04T06:11:40.951Z,22.03
2023-04-04T06:12:40.918Z,22.02
2023-04-04T06:13:40.959Z,22.02
2023-04-04T06:14:40.946Z,22.02
2023-04-04T06:15:40.888Z,22.03
2023-04-04T06:16:40.863Z,22.03
2023-04-04T06:17:40.932Z,22.03
2023-04-04T06:18:40.873Z,22.03
2023-04-04T06:19:40.894Z,22.03
2023-04-04T06:20:41.206Z,22.04
2023-04-04T06:21:40.872Z,22.04
2023-04-04T06:22:40.855Z,22.03
2023-04-04T06:23:40.840Z,22.04
2023-04-04T06:24:40.855Z,22.04
2023-04-04T06:25:40.879Z,22.03
2023-04-04T06:26:40.944Z,22.03
2023-04-04T06:27:40.965Z,22.03
2023-04-04T06:28:40.970Z,22.04
2023-04-04T06:29:41.028Z,22.04
2023-04-04T06:30:41.341Z,22.03
2023-04-04T06:31:41.124Z,22.04
2023-04-04T06:32:41.176Z,22.03
2023-04-04T06:33:41.121Z,22.04
2023-04-04T06:34:41.146Z,22.04
2023-04-04T06:35:41.207Z,22.04
2023-04-04T06:36:41.225Z,22.05
2023-04-04T06:37:41.242Z,22.04
2023-04-04T06:38:41.288Z,22.05
2023-04-04T06:39:41.336Z,22.05
2023-04-04T06:40:41.656Z,22.05
2023-04-04T06:41:41.357Z,22.05
2023-04-04T06:42:41.418Z,22.06
2023-04-04T06:43:41.452Z,22.05
2023-04-04T06:44:41.506Z,22.06
2023-04-04T06:45:41.537Z,22.05
2023-04-04T06:46:41.646Z,22.06
2023-04-04T06:47:41.663Z,22.07
2023-04-04T06:48:41.616Z,22.06
2023-04-04T06:49:41.655Z,22.07
2023-04-04T06:50:41.755Z,22.06
2023-04-04T06:51:41.747Z,22.06
2023-04-04T06:52:41.720Z,22.06
2023-04-04T06:53:41.754Z,22.07
2023-04-04T06:54:41.792Z,22.07
2023-04-04T06:55:41.823Z,22.07
2023-04-04T06:56:41.834Z,22.07
2023-04-04T06:57:41.883Z,22.07
2023-04-04T06:58:41.919Z,22.07
2023-04-04T06:59:43.274Z,22.07
2023-04-04T07:00:42.369Z,22.07
2023-04-04T07:01:42.151Z,22.08
2023-04-04T07:02:42.257Z,22.08
2023-04-04T07:03:42.195Z,22.09
2023-04-04T07:04:42.240Z,22.09
2023-04-04T07:05:42.276Z,22.10
2023-04-04T07:06:42.282Z,22.09
2023-04-04T07:07:42.351Z,22.10
2023-04-04T07:08:42.412Z,22.10
2023-04-04T07:09:42.480Z,22.11
2023-04-04T07:10:42.751Z,22.11
2023-04-04T07:11:42.411Z,22.11
2023-04-04T07:12:42.476Z,22.11
2023-04-04T07:13:42.488Z,22.12
2023-04-04T07:14:42.514Z,22.12
2023-04-04T07:15:42.524Z,22.12
2023-04-04T07:16:42.588Z,22.12
2023-04-04T07:17:42.581Z,22.12
2023-04-04T07:18:42.586Z,22.12
2023-04-04T07:19:42.618Z,22.12
2023-04-04T07:20:42.645Z,22.12
2023-04-04T07:21:42.676Z,22.13
2023-04-04T07:22:42.685Z,22.13
2023-04-04T07:23:42.679Z,22.13
2023-04-04T07:24:42.689Z,22.12
2023-04-04T07:25:44.444Z,22.13
2023-04-04T07:26:42.755Z,22.13
2023-04-04T07:27:42.790Z,22.13
2023-04-04T07:28:42.833Z,22.13
2023-04-04T07:29:42.817Z,22.13
2023-04-04T07:30:43.124Z,22.13
2023-04-04T07:31:42.890Z,22.15
2023-04-04T07:32:42.937Z,22.14
2023-04-04T07:33:42.916Z,22.15
2023-04-04T07:34:42.937Z,22.15
2023-04-04T07:35:43.064Z,22.15
2023-04-04T07:36:42.954Z,22.15
2023-04-04T07:37:42.987Z,22.15
2023-04-04T07:38:43.020Z,22.15
2023-04-04T07:39:43.014Z,22.15
2023-04-04T07:40:43.049Z,22.15
2023-04-04T07:41:43.062Z,22.15
2023-04-04T07:42:43.093Z,22.16
2023-04-04T07:43:43.129Z,22.16
2023-04-04T07:44:43.157Z,22.16
2023-04-04T07:45:43.180Z,22.16
2023-04-04T07:46:43.497Z,22.15
2023-04-04T07:47:43.238Z,22.16
2023-04-04T07:48:43.216Z,22.16
2023-04-04T07:49:43.249Z,22.16
2023-04-04T07:50:43.246Z,22.16
2023-04-04T07:51:43.293Z,22.17
2023-04-04T07:52:43.286Z,22.17
2023-04-04T07:53:43.273Z,22.17
2023-04-04T07:54:43.310Z,22.17
2023-04-04T07:55:43.324Z,22.17
2023-04-04T07:56:43.405Z,22.18
2023-04-04T07:57:43.332Z,22.17
2023-04-04T07:58:43.368Z,22.17
2023-04-04T07:59:43.391Z,22.17
2023-04-04T08:00:43.403Z,22.17
2023-04-04T08:01:45.809Z,22.17
2023-04-04T08:02:43.491Z,22.16
2023-04-04T08:03:43.494Z,22.17
2023-04-04T08:04:43.385Z,22.17
2023-04-04T08:05:43.372Z,22.18
2023-04-04T08:06:43.390Z,22.17
2023-04-04T08:07:43.354Z,22.17
2023-04-04T08:08:43.345Z,22.17
2023-04-04T08:09:43.330Z,22.17
2023-04-04T08:10:43.343Z,22.18
2023-04-04T08:11:43.325Z,22.18
2023-04-04T08:12:43.316Z,22.18
2023-04-04T08:13:43.341Z,22.18
2023-04-04T08:14:43.331Z,22.19
2023-04-04T08:15:43.326Z,22.19
2023-04-04T08:16:43.690Z,22.19
2023-04-04T08:17:43.392Z,22.19
2023-04-04T08:18:43.309Z,22.20
2023-04-04T08:19:43.267Z,22.19
2023-04-04T08:20:43.272Z,22.19
2023-04-04T08:21:43.282Z,22.19
2023-04-04T08:22:43.278Z,22.19
2023-04-04T08:23:43.247Z,22.19
2023-04-04T08:24:43.245Z,22.19
2023-04-04T08:25:43.231Z,22.19
2023-04-04T08:26:45.272Z,22.19
2023-04-04T08:27:44.250Z,22.19
2023-04-04T08:28:43.258Z,22.20
2023-04-04T08:29:43.216Z,22.20
2023-04-04T08:30:43.225Z,22.20
2023-04-04T08:31:43.250Z,22.19
2023-04-04T08:32:43.219Z,22.20
2023-04-04T08:34:43.236Z,22.19
2023-04-04T08:35:43.193Z,22.19
2023-04-04T08:36:43.174Z,22.19
2023-04-04T08:37:43.189Z,22.20
2023-04-04T08:38:43.190Z,22.20
2023-04-04T08:39:43.193Z,22.21
2023-04-04T08:40:43.147Z,22.22
2023-04-04T08:41:43.183Z,22.21
2023-04-04T08:42:43.118Z,22.22
2023-04-04T08:43:43.300Z,22.21
2023-04-04T08:44:43.144Z,22.22
2023-04-04T08:45:43.179Z,22.22
2023-04-04T08:46:43.454Z,22.22
2023-04-04T08:47:43.160Z,22.22
2023-04-04T08:48:43.093Z,22.22
2023-04-04T08:49:43.080Z,22.23
2023-04-04T08:50:43.064Z,22.24
2023-04-04T08:51:44.731Z,22.24
2023-04-04T08:52:43.085Z,22.24
2023-04-04T08:53:43.044Z,22.24
2023-04-04T08:54:43.052Z,22.24
2023-04-04T08:55:43.046Z,22.24
2023-04-04T08:56:43.367Z,22.24
2023-04-04T08:57:43.069Z,22.24
2023-04-04T08:58:43.064Z,22.24
2023-04-04T08:59:43.093Z,22.24
2023-04-04T09:00:43.173Z,22.23
2023-04-04T09:01:43.004Z,22.24
2023-04-04T09:02:43.054Z,22.24
2023-04-04T09:03:43.039Z,22.24
2023-04-04T09:04:44.633Z,22.24
2023-04-04T09:05:43.999Z,22.24
2023-04-04T09:06:42.984Z,22.24
2023-04-04T09:07:42.947Z,22.24
2023-04-04T09:08:42.989Z,22.24
2023-04-04T09:09:42.949Z,22.23
2023-04-04T09:10:42.944Z,22.24
2023-04-04T09:11:42.980Z,22.24
2023-04-04T09:12:43.001Z,22.25
2023-04-04T09:13:42.931Z,22.24
2023-04-04T09:14:42.933Z,22.24
2023-04-04T09:15:42.887Z,22.25
2023-04-04T09:16:42.922Z,22.24
2023-04-04T09:17:42.967Z,22.24
2023-04-04T09:18:42.911Z,22.24
2023-04-04T09:19:42.909Z,22.24
2023-04-04T09:20:43.198Z,22.25
2023-04-04T09:21:42.895Z,22.25
2023-04-04T09:22:42.872Z,22.25
2023-04-04T09:23:42.862Z,22.25
2023-04-04T09:24:42.856Z,22.24
2023-04-04T09:25:47.470Z,22.25
2023-04-04T09:26:43.827Z,22.25
2023-04-04T09:27:42.829Z,22.25
2023-04-04T09:28:42.841Z,22.25
2023-04-04T09:29:42.806Z,22.25
2023-04-04T09:30:42.804Z,22.26
2023-04-04T09:31:42.840Z,22.25
2023-04-04T09:32:42.875Z,22.26
2023-04-04T09:33:42.799Z,22.26
2023-04-04T09:34:42.778Z,22.26
2023-04-04T09:35:42.778Z,22.26
2023-04-04T09:36:42.926Z,22.27
2023-04-04T09:37:42.855Z,22.27
2023-04-04T09:38:42.785Z,22.26
2023-04-04T09:39:42.778Z,22.27
2023-04-04T09:40:43.009Z,22.27
2023-04-04T09:41:42.778Z,22.27
2023-04-04T09:42:42.771Z,22.27
2023-04-04T09:43:42.733Z,22.27
2023-04-04T09:44:42.763Z,22.27
2023-04-04T09:45:42.781Z,22.27
2023-04-04T09:46:42.783Z,22.28
2023-04-04T09:47:43.731Z,22.28
2023-04-04T09:48:42.697Z,22.28
2023-04-04T09:49:42.706Z,22.28
2023-04-04T09:50:42.729Z,22.28
2023-04-04T09:51:42.852Z,22.28
2023-04-04T09:52:42.678Z,22.28
2023-04-04T09:53:42.656Z,22.28
2023-04-04T09:54:47.992Z,22.28
2023-04-04T09:55:43.635Z,22.28
2023-04-04T09:56:42.683Z,22.28
2023-04-04T09:57:42.731Z,22.29
2023-04-04T09:58:49.450Z,22.28
2023-04-04T09:59:43.656Z,22.28
2023-04-04T10:00:42.597Z,22.28
2023-04-04T10:01:42.669Z,22.28
2023-04-04T10:02:42.637Z,22.28
2023-04-04T10:03:42.618Z,22.28
2023-04-04T10:04:42.592Z,22.28
2023-04-04T10:05:42.616Z,22.29
2023-04-04T10:06:42.574Z,22.29
2023-04-04T10:07:42.624Z,22.30
2023-04-04T10:08:42.596Z,22.29
2023-04-04T10:09:42.566Z,22.30
2023-04-04T10:10:42.540Z,22.29
2023-04-04T10:11:42.545Z,22.31
2023-04-04T10:12:42.509Z,22.30
2023-04-04T10:13:42.552Z,22.30
2023-04-04T10:14:42.533Z,22.30
2023-04-04T10:15:42.505Z,22.30
2023-04-04T10:16:42.498Z,22.31
2023-04-04T10:17:42.577Z,22.30
2023-04-04T10:18:42.503Z,22.31
2023-04-04T10:19:42.498Z,22.32
2023-04-04T10:20:42.455Z,22.32
2023-04-04T10:21:42.470Z,22.31
2023-04-04T10:22:43.687Z,22.31
2023-04-04T10:23:42.487Z,22.31
2023-04-04T10:24:42.479Z,22.32
2023-04-04T10:25:42.446Z,22.32
2023-04-04T10:26:42.460Z,22.32
2023-04-04T10:27:42.454Z,22.32
2023-04-04T10:28:42.659Z,22.32
2023-04-04T10:29:42.427Z,22.32
2023-04-04T10:30:49.829Z,22.32
2023-04-04T10:31:43.434Z,22.32
2023-04-04T10:32:42.507Z,22.33
2023-04-04T10:33:42.496Z,22.32
2023-04-04T10:34:42.426Z,22.33
2023-04-04T10:35:42.445Z,22.33
2023-04-04T10:36:42.415Z,22.33
2023-04-04T10:37:42.413Z,22.33
2023-04-04T10:38:42.378Z,22.33
2023-04-04T10:39:42.380Z,22.34
2023-04-04T10:40:42.586Z,22.34
2023-04-04T10:41:42.356Z,22.34
2023-04-04T10:42:42.393Z,22.34
2023-04-04T10:43:42.364Z,22.34
2023-04-04T10:44:42.361Z,22.34
2023-04-04T10:45:42.605Z,22.34
2023-04-04T10:46:42.383Z,22.35
2023-04-04T10:47:42.411Z,22.34
2023-04-04T10:48:42.313Z,22.35
2023-04-04T10:49:42.318Z,22.35
2023-04-04T10:50:42.282Z,22.34
2023-04-04T10:51:55.011Z,22.34
2023-04-04T10:52:43.343Z,22.35
2023-04-04T10:53:42.318Z,22.35
2023-04-04T10:54:42.288Z,22.34
2023-04-04T10:55:42.664Z,22.35
2023-04-04T10:56:42.359Z,22.35
2023-04-04T10:57:42.278Z,22.35
2023-04-04T10:58:42.240Z,22.35
2023-04-04T10:59:42.211Z,22.35
2023-04-04T11:00:42.266Z,22.35
2023-04-04T11:01:42.229Z,22.36
2023-04-04T11:02:42.272Z,22.36
2023-04-04T11:03:42.277Z,22.37
2023-04-04T11:04:42.244Z,22.36
2023-04-04T11:05:42.811Z,22.36
2023-04-04T11:06:42.210Z,22.37
2023-04-04T11:07:42.164Z,22.36
2023-04-04T11:08:42.234Z,22.36
2023-04-04T11:09:42.150Z,22.37
2023-04-04T11:10:42.143Z,22.38
2023-04-04T11:11:42.157Z,22.37
2023-04-04T11:12:42.264Z,22.38
2023-04-04T11:13:42.205Z,22.37
2023-04-04T11:14:42.144Z,22.38
2023-04-04T11:15:42.183Z,22.37
2023-04-04T11:16:42.222Z,22.38
2023-04-04T11:17:42.280Z,22.37
2023-04-04T11:18:42.279Z,22.38
2023-04-04T11:19:42.317Z,22.38
2023-04-04T11:20:42.344Z,22.38
2023-04-04T11:21:42.341Z,22.39
2023-04-04T11:22:42.359Z,22.39
2023-04-04T11:23:42.365Z,22.39
2023-04-04T11:24:42.440Z,22.39
2023-04-04T11:25:42.534Z,22.39
2023-04-04T11:26:42.471Z,22.39
2023-04-04T11:27:42.551Z,22.39
2023-04-04T11:28:42.518Z,22.39
2023-04-04T11:29:42.551Z,22.39
2023-04-04T11:30:42.604Z,22.39
2023-04-04T11:31:42.629Z,22.39
2023-04-04T11:32:47.901Z,22.39
2023-04-04T11:33:43.646Z,22.39
2023-04-04T11:34:42.618Z,22.39
2023-04-04T11:35:42.933Z,22.39
2023-04-04T11:36:42.592Z,22.40
2023-04-04T11:37:42.604Z,22.40
2023-04-04T11:38:42.570Z,22.39
2023-04-04T11:39:42.587Z,22.40
2023-04-04T11:40:42.564Z,22.39
2023-04-04T11:41:42.586Z,22.40
2023-04-04T11:42:42.583Z,22.41
2023-04-04T11:43:42.568Z,22.41
2023-04-04T11:44:42.558Z,22.41
2023-04-04T11:45:42.675Z,22.41
2023-04-04T11:46:42.570Z,22.41
2023-04-04T11:47:42.602Z,22.41
2023-04-04T11:48:42.608Z,22.41
2023-04-04T11:49:44.254Z,22.41
2023-04-04T11:50:42.648Z,22.41
2023-04-04T11:51:42.721Z,22.41
2023-04-04T11:52:42.734Z,22.41
2023-04-04T11:53:42.807Z,22.42
2023-04-04T11:54:42.831Z,22.42
2023-04-04T11:55:42.920Z,22.43
2023-04-04T11:56:42.868Z,22.42
2023-04-04T11:57:42.908Z,22.44
2023-04-04T11:58:42.910Z,22.43
2023-04-04T11:59:43.034Z,22.44
2023-04-04T12:00:43.013Z,22.43
2023-04-04T12:01:43.033Z,22.44
2023-04-04T12:02:43.121Z,22.44
2023-04-04T12:03:43.158Z,22.45
2023-04-04T12:04:43.857Z,22.45
2023-04-04T12:05:43.505Z,22.46
2023-04-04T12:06:43.248Z,22.46
2023-04-04T12:07:43.293Z,22.46
2023-04-04T12:08:43.346Z,22.46
2023-04-04T12:09:43.449Z,22.47
2023-04-04T12:10:43.478Z,22.47
2023-04-04T12:11:43.543Z,22.47
2023-04-04T12:12:43.594Z,22.48
2023-04-04T12:13:43.603Z,22.48
2023-04-04T12:14:43.617Z,22.48
2023-04-04T12:15:43.815Z,22.49
2023-04-04T12:16:43.784Z,22.49
2023-04-04T12:17:43.854Z,22.49
2023-04-04T12:18:43.900Z,22.50
2023-04-04T12:19:43.925Z,22.51
2023-04-04T12:20:43.980Z,22.51
2023-04-04T12:21:44.049Z,22.52
2023-04-04T12:22:44.068Z,22.52
2023-04-04T12:23:44.138Z,22.52
2023-04-04T12:24:44.177Z,22.53
2023-04-04T12:25:44.227Z,22.53
2023-04-04T12:26:44.265Z,22.55
2023-04-04T12:27:44.327Z,22.54
2023-04-04T12:28:44.395Z,22.56
2023-04-04T12:29:44.453Z,22.56
2023-04-04T12:30:44.494Z,22.57
2023-04-04T12:31:44.572Z,22.57
2023-04-04T12:32:44.635Z,22.58
2023-04-04T12:33:44.645Z,22.58
2023-04-04T12:34:48.697Z,22.59
2023-04-04T12:35:45.716Z,22.59
2023-04-04T12:36:44.666Z,22.60
2023-04-04T12:37:44.694Z,22.60
2023-04-04T12:38:44.652Z,22.61
2023-04-04T12:39:44.621Z,22.61
2023-04-04T12:40:44.644Z,22.62
2023-04-04T12:41:44.622Z,22.63
2023-04-04T12:42:44.631Z,22.64
2023-04-04T12:43:44.636Z,22.64
2023-04-04T12:44:44.647Z,22.65
2023-04-04T12:45:44.702Z,22.66
2023-04-04T12:46:47.279Z,22.67
2023-04-04T12:47:44.800Z,22.67
2023-04-04T12:48:44.745Z,22.68
2023-04-04T12:49:44.780Z,22.69
2023-04-04T12:50:44.763Z,22.70
2023-04-04T12:51:44.743Z,22.71
2023-04-04T12:52:45.636Z,22.72
2023-04-04T12:53:44.700Z,22.73